Albert Maersk — OUOW2 — position and weather

sailwx.info

Track history (hours):
 
Tides and Currents Weather Stations Pressure Air Temp Water Temp Dewpoint Dewpoint Depression Visibility Wind Speed Wind Dir Waves Ship Positions

Albert Maersk

Last reported at 2015-Jan-20 15:33 UTC. Time now 2015-Jan-28 16:17 UTC.
Position N 01°53' E 102°23'.
Warning: this ship's position is 8 days out of date.

MMSI: 220259928.

Date/timePositionNaut miles runAvg speedWind from/ knotsBaromVisibWave heightAir tempDewpointWater temp
2015-Jan-20 15:33N 01°53' E 102°23'2118.9
2015-Jan-20 14:28N 01°44' E 102°41'77 3.1
2015-Jan-19 13:30N 01°12' E 103°51'1212.4
2015-Jan-19 12:31N 01°16' E 104°03'1515.6
2015-Jan-19 11:33N 01°18' E 104°18'  
2015-Jan-16 04:32N 22°34' E 114°16'0 0.0
2015-Jan-16 03:15N 22°34' E 114°16'19 6.8
2015-Jan-16 00:23N 22°17' E 114°27'1214.1
2015-Jan-15 23:31N 22°07' E 114°19'1413.0
2015-Jan-15 22:27N 22°16' E 114°07'4 4.7
2015-Jan-15 21:31N 22°20' E 114°07'0 0.0
2015-Jan-15 20:31N 22°20' E 114°07'0 0.0
2015-Jan-15 19:31N 22°20' E 114°07'0 0.0
2015-Jan-15 18:31N 22°20' E 114°07'0 0.0
2015-Jan-15 17:31N 22°20' E 114°07'0 0.1
2015-Jan-15 16:28N 22°20' E 114°07'0 0.1
2015-Jan-15 15:28N 22°20' E 114°07'0 0.0
2015-Jan-15 14:28N 22°20' E 114°07'0 0.0
2015-Jan-15 13:28N 22°20' E 114°07'0 0.0
2015-Jan-15 12:31N 22°20' E 114°07'0 0.0
2015-Jan-15 11:31N 22°20' E 114°07'0 0.0
2015-Jan-15 10:25N 22°20' E 114°07'0 0.0
2015-Jan-15 09:19N 22°20' E 114°07'0 0.0
2015-Jan-15 06:31N 22°20' E 114°07'0 0.0
2015-Jan-15 03:16N 22°20' E 114°07'0 0.0
2015-Jan-15 01:31N 22°20' E 114°07'0 0.5
2015-Jan-15 00:33N 22°19' E 114°07'10 8.4
2015-Jan-14 23:25N 22°11' E 114°12'1012.2
2015-Jan-14 22:33N 22°09' E 114°23'20419.6
2015-Jan-14 12:11N 23°23' E 117°49'1320.9
2015-Jan-14 11:33N 23°30' E 118°01'2020.6
2015-Jan-14 10:33N 23°42' E 118°19'2120.6
2015-Jan-14 09:33N 23°56' E 118°36'2820.7
2015-Jan-14 08:12N 24°14' E 118°60'1920.3
2015-Jan-14 07:14N 24°26' E 119°16'40618.7
2015-Jan-13 09:32N 30°25' E 122°48'1818.4
2015-Jan-13 08:33N 30°32' E 122°29'1414.3
2015-Jan-13 07:34N 30°34' E 122°13'8 7.0
2015-Jan-13 06:27N 30°37' E 122°05'0 0.0
2015-Jan-13 05:32N 30°37' E 122°05'0 0.0
2015-Jan-13 04:33N 30°37' E 122°05'0 0.0
2015-Jan-13 03:27N 30°37' E 122°05'0 0.1
2015-Jan-13 02:30N 30°37' E 122°05'0 0.0
2015-Jan-13 01:33N 30°37' E 122°05'0 0.0
2015-Jan-13 00:31N 30°37' E 122°05'0 0.0
2015-Jan-12 23:31N 30°37' E 122°05'0 0.0
2015-Jan-12 22:28N 30°37' E 122°05'0 0.1
2015-Jan-12 21:25N 30°37' E 122°05'0 0.1
2015-Jan-12 20:32N 30°37' E 122°05'0 0.0
2015-Jan-12 19:27N 30°37' E 122°05'0 0.0
2015-Jan-12 18:33N 30°37' E 122°05'0 0.0
2015-Jan-12 17:28N 30°37' E 122°05'0 0.0
2015-Jan-12 16:25N 30°37' E 122°05'1 0.8
2015-Jan-12 15:33N 30°36' E 122°05'1111.0
2015-Jan-12 14:33N 30°33' E 122°17'2 2.0
2015-Jan-12 13:33N 30°33' E 122°20'1514.5
2015-Jan-12 12:32N 30°32' E 122°37'1615.9
2015-Jan-12 11:33N 30°32' E 122°55'  
Track history (hours):
 
Tides and Currents Weather Stations Pressure Air Temp Water Temp Dewpoint Dewpoint Depression Visibility Wind Speed Wind Dir Waves Ship Positions

Albert Maersk

Last reported at 2015-Jan-20 15:33 UTC. Time now 2015-Jan-28 16:17 UTC.
Position N 01°53' E 102°23'.
Warning: this ship's position is 8 days out of date.

MMSI: 220259928.

Date/timePositionNaut miles runAvg speedWind from/ knotsBaromVisibWave heightAir tempDewpointWater temp
2015-Jan-20 15:33N 01°53' E 102°23'2118.9
2015-Jan-20 14:28N 01°44' E 102°41'77 3.1
2015-Jan-19 13:30N 01°12' E 103°51'1212.4
2015-Jan-19 12:31N 01°16' E 104°03'1515.6
2015-Jan-19 11:33N 01°18' E 104°18'  
2015-Jan-16 04:32N 22°34' E 114°16'0 0.0
2015-Jan-16 03:15N 22°34' E 114°16'19 6.8
2015-Jan-16 00:23N 22°17' E 114°27'1214.1
2015-Jan-15 23:31N 22°07' E 114°19'1413.0
2015-Jan-15 22:27N 22°16' E 114°07'4 4.7
2015-Jan-15 21:31N 22°20' E 114°07'0 0.0
2015-Jan-15 20:31N 22°20' E 114°07'0 0.0
2015-Jan-15 19:31N 22°20' E 114°07'0 0.0
2015-Jan-15 18:31N 22°20' E 114°07'0 0.0
2015-Jan-15 17:31N 22°20' E 114°07'0 0.1
2015-Jan-15 16:28N 22°20' E 114°07'0 0.1
2015-Jan-15 15:28N 22°20' E 114°07'0 0.0
2015-Jan-15 14:28N 22°20' E 114°07'0 0.0
2015-Jan-15 13:28N 22°20' E 114°07'0 0.0
2015-Jan-15 12:31N 22°20' E 114°07'0 0.0
2015-Jan-15 11:31N 22°20' E 114°07'0 0.0
2015-Jan-15 10:25N 22°20' E 114°07'0 0.0
2015-Jan-15 09:19N 22°20' E 114°07'0 0.0
2015-Jan-15 06:31N 22°20' E 114°07'0 0.0
2015-Jan-15 03:16N 22°20' E 114°07'0 0.0
2015-Jan-15 01:31N 22°20' E 114°07'0 0.5
2015-Jan-15 00:33N 22°19' E 114°07'10 8.4
2015-Jan-14 23:25N 22°11' E 114°12'1012.2
2015-Jan-14 22:33N 22°09' E 114°23'20419.6
2015-Jan-14 12:11N 23°23' E 117°49'1320.9
2015-Jan-14 11:33N 23°30' E 118°01'2020.6
2015-Jan-14 10:33N 23°42' E 118°19'2120.6
2015-Jan-14 09:33N 23°56' E 118°36'2820.7
2015-Jan-14 08:12N 24°14' E 118°60'1920.3
2015-Jan-14 07:14N 24°26' E 119°16'40618.7
2015-Jan-13 09:32N 30°25' E 122°48'1818.4
2015-Jan-13 08:33N 30°32' E 122°29'1414.3
2015-Jan-13 07:34N 30°34' E 122°13'8 7.0
2015-Jan-13 06:27N 30°37' E 122°05'0 0.0
2015-Jan-13 05:32N 30°37' E 122°05'0 0.0
2015-Jan-13 04:33N 30°37' E 122°05'0 0.0
2015-Jan-13 03:27N 30°37' E 122°05'0 0.1
2015-Jan-13 02:30N 30°37' E 122°05'0 0.0
2015-Jan-13 01:33N 30°37' E 122°05'0 0.0
2015-Jan-13 00:31N 30°37' E 122°05'0 0.0
2015-Jan-12 23:31N 30°37' E 122°05'0 0.0
2015-Jan-12 22:28N 30°37' E 122°05'0 0.1
2015-Jan-12 21:25N 30°37' E 122°05'0 0.1
2015-Jan-12 20:32N 30°37' E 122°05'0 0.0
2015-Jan-12 19:27N 30°37' E 122°05'0 0.0
2015-Jan-12 18:33N 30°37' E 122°05'0 0.0
2015-Jan-12 17:28N 30°37' E 122°05'0 0.0
2015-Jan-12 16:25N 30°37' E 122°05'1 0.8
2015-Jan-12 15:33N 30°36' E 122°05'1111.0
2015-Jan-12 14:33N 30°33' E 122°17'2 2.0
2015-Jan-12 13:33N 30°33' E 122°20'1514.5
2015-Jan-12 12:32N 30°32' E 122°37'1615.9
2015-Jan-12 11:33N 30°32' E 122°55'  

Dump ship's entire track history